Time;durP1;ratioP1;P1;durP2;ratioP2;P2;SDS_P1;SDS_P2;PMS_P1;PMS_P2;Temp;Humidity;BMP_temperature;BMP_pressure;BME280_temperature;BME280_humidity;BME280_pressure;Samples;Min_cycle;Max_cycle;Signal;HPM_P1;HPM_P2
2023/03/07 00:02:53;;;;;;;16.62;11.25;;;11.90;82.00;;;;;;10791339;33;20051;-70
2023/03/07 00:08:58;;;;;;;12.55;7.97;;;11.90;82.00;;;;;;10789796;33;20043;-70
2023/03/07 00:15:00;;;;;;;12.02;9.63;;;11.60;82.10;;;;;;10785560;33;20017;-70
2023/03/07 00:21:06;;;;;;;16.10;11.07;;;11.60;82.20;;;;;;10787575;26;20374;-71
2023/03/07 00:27:08;;;;;;;15.65;11.00;;;11.70;82.00;;;;;;10826777;33;20043;-71
2023/03/07 00:33:10;;;;;;;14.43;11.57;;;11.70;81.60;;;;;;10825930;33;20023;-71
2023/03/07 00:39:12;;;;;;;12.73;9.07;;;11.50;81.60;;;;;;10812634;33;20062;-71
2023/03/07 00:45:14;;;;;;;14.13;8.32;;;11.60;81.80;;;;;;10813053;33;20451;-71
2023/03/07 00:51:18;;;;;;;15.45;10.10;;;11.40;81.80;;;;;;10811858;33;20036;-70
2023/03/07 00:57:20;;;;;;;15.93;11.63;;;11.50;81.80;;;;;;10811474;33;20059;-71
2023/03/07 01:03:23;;;;;;;13.10;9.70;;;11.30;81.70;;;;;;10811947;33;20020;-71
2023/03/07 01:09:25;;;;;;;13.35;8.85;;;11.10;81.50;;;;;;10825044;33;20028;-71
2023/03/07 01:15:27;;;;;;;13.23;9.43;;;11.00;82.00;;;;;;10826086;33;20055;-71
2023/03/07 01:21:33;;;;;;;12.95;9.35;;;11.00;81.80;;;;;;10824684;33;20027;-71
2023/03/07 01:27:36;;;;;;;11.65;9.50;;;10.90;81.70;;;;;;10824905;32;20046;-71
2023/03/07 01:33:39;;;;;;;14.00;8.73;;;11.00;81.50;;;;;;10822568;33;20402;-71
2023/03/07 01:39:41;;;;;;;12.23;8.77;;;10.80;81.60;;;;;;10824171;33;20058;-71
2023/03/07 01:45:50;;;;;;;23.42;8.65;;;10.80;81.70;;;;;;10820911;33;20024;-71
2023/03/07 01:52:08;;;;;;;10.77;8.13;;;10.70;81.30;;;;;;10825452;33;20027;-71
2023/03/07 01:58:13;;;;;;;12.30;9.30;;;10.40;81.90;;;;;;10823764;33;20032;-70
2023/03/07 02:04:23;;;;;;;9.60;6.85;;;10.50;81.70;;;;;;10824197;33;20024;-71
2023/03/07 02:10:25;;;;;;;12.00;7.87;;;10.50;81.30;;;;;;10824136;33;20334;-71
2023/03/07 02:16:27;;;;;;;14.05;8.77;;;10.50;81.50;;;;;;10823990;33;20024;-71
2023/03/07 02:22:30;;;;;;;9.55;7.65;;;10.50;81.20;;;;;;10821489;33;20024;-71
2023/03/07 02:28:33;;;;;;;13.48;7.93;;;10.40;81.10;;;;;;10823703;33;20390;-71
2023/03/07 02:34:36;;;;;;;12.85;9.52;;;10.40;81.10;;;;;;10823515;32;20020;-71
2023/03/07 02:40:40;;;;;;;10.02;8.23;;;10.40;81.00;;;;;;10812742;33;20046;-71
2023/03/07 02:46:42;;;;;;;13.43;9.60;;;10.50;80.90;;;;;;10829589;33;20024;-71
2023/03/07 02:52:44;;;;;;;14.13;9.43;;;10.50;80.60;;;;;;10827369;33;20024;-71
2023/03/07 02:58:47;;;;;;;12.10;9.20;;;10.40;80.90;;;;;;10815370;33;20147;-71
2023/03/07 03:04:49;;;;;;;10.38;7.37;;;10.40;80.90;;;;;;10828924;33;20402;-71
2023/03/07 03:10:55;;;;;;;9.82;7.68;;;10.40;81.00;;;;;;10829626;33;20051;-71
2023/03/07 03:16:57;;;;;;;15.52;13.50;;;10.40;80.90;;;;;;10828693;33;20385;-71
2023/03/07 03:22:59;;;;;;;14.43;10.25;;;10.50;81.00;;;;;;10825049;33;20444;-71
2023/03/07 03:29:03;;;;;;;12.77;10.07;;;10.50;81.20;;;;;;10827830;33;20019;-71
2023/03/07 03:35:07;;;;;;;17.77;10.38;;;10.40;81.10;;;;;;10827651;33;20020;-71
2023/03/07 03:41:11;;;;;;;14.05;10.40;;;10.30;81.00;;;;;;10827533;33;20048;-71
2023/03/07 03:47:14;;;;;;;23.33;18.80;;;10.30;81.10;;;;;;10824278;32;20028;-72
2023/03/07 03:53:17;;;;;;;13.93;9.48;;;10.40;80.80;;;;;;10827127;33;20016;-72
2023/03/07 03:59:21;;;;;;;13.40;10.40;;;10.50;80.80;;;;;;10826860;33;20055;-72
2023/03/07 04:05:23;;;;;;;18.87;13.70;;;10.60;80.70;;;;;;10822749;33;20051;-71
2023/03/07 04:11:26;;;;;;;15.68;10.85;;;10.80;81.30;;;;;;10826859;33;20028;-74
2023/03/07 04:17:28;;;;;;;12.55;9.77;;;10.60;81.20;;;;;;10823080;33;20031;-74
2023/03/07 04:23:31;;;;;;;14.13;10.82;;;10.70;81.60;;;;;;10823762;33;20032;-73
2023/03/07 04:29:33;;;;;;;15.60;12.18;;;10.70;81.30;;;;;;10812982;33;20326;-73
2023/03/07 04:35:36;;;;;;;13.40;9.50;;;10.70;80.80;;;;;;10825842;33;20016;-74
2023/03/07 04:41:38;;;;;;;16.17;12.63;;;10.80;80.60;;;;;;10826444;33;20432;-73
2023/03/07 04:47:40;;;;;;;15.52;12.20;;;10.70;80.60;;;;;;10825120;33;20397;-73
2023/03/07 04:53:43;;;;;;;10.88;7.57;;;10.70;80.50;;;;;;10825519;33;20337;-73
2023/03/07 04:59:46;;;;;;;20.05;14.45;;;10.50;80.70;;;;;;10824631;32;20020;-73
2023/03/07 05:05:49;;;;;;;11.55;9.30;;;10.20;81.10;;;;;;10825022;33;20061;-73
2023/03/07 05:11:51;;;;;;;14.50;9.35;;;10.30;80.60;;;;;;10824951;33;20365;-73
2023/03/07 05:17:54;;;;;;;12.02;9.82;;;9.80;80.80;;;;;;10811557;33;20027;-73
2023/03/07 05:23:59;;;;;;;12.10;8.60;;;9.70;81.60;;;;;;10825073;33;20028;-73
2023/03/07 05:30:04;;;;;;;25.20;17.33;;;9.80;81.50;;;;;;10809653;33;20402;-73
2023/03/07 05:36:07;;;;;;;16.73;11.38;;;10.00;81.20;;;;;;10824020;33;20031;-73
2023/03/07 05:42:09;;;;;;;19.55;14.85;;;10.30;80.50;;;;;;10825457;33;20020;-73
2023/03/07 05:48:13;;;;;;;22.45;18.42;;;10.50;79.90;;;;;;10811056;33;20066;-73
2023/03/07 05:54:16;;;;;;;15.30;11.85;;;10.70;79.80;;;;;;10811739;32;20036;-73
2023/03/07 06:00:19;;;;;;;15.77;13.52;;;11.00;79.50;;;;;;10823736;33;20067;-73
2023/03/07 06:06:21;;;;;;;14.15;10.90;;;10.90;79.30;;;;;;10823754;33;20043;-73
2023/03/07 06:12:23;;;;;;;18.50;13.27;;;10.90;78.90;;;;;;10825879;32;20048;-71
2023/03/07 06:18:26;;;;;;;15.32;12.30;;;10.70;78.80;;;;;;10817370;32;20058;-71
2023/03/07 06:24:29;;;;;;;16.85;13.45;;;10.70;78.70;;;;;;10773945;33;20312;-71
2023/03/07 06:30:32;;;;;;;25.77;19.25;;;10.80;78.50;;;;;;10793070;33;20051;-71
2023/03/07 06:36:39;;;;;;;30.10;22.60;;;11.20;79.30;;;;;;10792858;33;20036;-71
2023/03/07 06:42:41;;;;;;;16.95;13.05;;;11.40;78.80;;;;;;10794112;33;20012;-71
2023/03/07 06:48:43;;;;;;;17.67;13.62;;;11.50;78.90;;;;;;10788924;33;20051;-71
2023/03/07 06:54:46;;;;;;;23.95;16.30;;;11.70;80.40;;;;;;10793268;33;20043;-71
2023/03/07 07:00:48;;;;;;;19.15;13.73;;;11.70;80.30;;;;;;10791894;33;20051;-71
2023/03/07 07:06:51;;;;;;;15.35;12.35;;;11.10;80.40;;;;;;10820970;32;20315;-71
2023/03/07 07:12:55;;;;;;;14.55;12.02;;;10.50;81.30;;;;;;10808053;33;20032;-71
2023/03/07 07:19:01;;;;;;;12.32;10.18;;;10.20;81.80;;;;;;10791913;33;20056;-71
2023/03/07 07:25:04;;;;;;;19.25;12.85;;;10.00;82.10;;;;;;10790502;33;20024;-71
2023/03/07 07:31:06;;;;;;;17.12;12.80;;;9.90;82.40;;;;;;10790067;33;20323;-72
2023/03/07 07:37:25;;;;;;;25.30;20.67;;;10.00;82.50;;;;;;10789776;33;20118;-71
2023/03/07 07:43:27;;;;;;;32.17;22.60;;;10.30;82.60;;;;;;10785598;33;20055;-71
2023/03/07 07:49:53;;;;;;;24.50;18.27;;;10.30;82.00;;;;;;10791618;33;20041;-71
2023/03/07 07:55:55;;;;;;;24.70;19.65;;;10.80;82.60;;;;;;10791312;33;20037;-71
2023/03/07 08:01:59;;;;;;;25.17;18.75;;;11.30;82.90;;;;;;10786406;33;20339;-71
2023/03/07 08:08:01;;;;;;;40.80;29.75;;;11.40;82.40;;;;;;10790559;33;20062;-71
2023/03/07 08:14:03;;;;;;;29.12;22.48;;;11.70;83.00;;;;;;10790484;33;20315;-71
2023/03/07 08:20:08;;;;;;;20.37;17.23;;;12.20;82.70;;;;;;10583872;27;7299862;-73
2023/03/07 08:26:12;;;;;;;19.60;15.75;;;12.40;83.00;;;;;;10930887;32;20027;-73
2023/03/07 08:32:14;;;;;;;15.60;11.77;;;12.20;82.90;;;;;;10931306;32;20018;-73
2023/03/07 08:45:18;;;;;;;19.62;14.95;;;12.20;83.70;;;;;;10943185;32;20051;-73
2023/03/07 08:51:20;;;;;;;15.75;10.68;;;12.40;84.20;;;;;;10942947;32;20019;-73
2023/03/07 08:57:23;;;;;;;16.20;10.98;;;12.30;84.10;;;;;;10943755;32;20056;-73
2023/03/07 09:03:25;;;;;;;16.40;12.27;;;12.40;84.60;;;;;;10939805;32;20401;-73
2023/03/07 09:09:28;;;;;;;24.83;16.95;;;12.60;84.60;;;;;;10942803;32;20031;-73
2023/03/07 09:15:30;;;;;;;19.55;16.23;;;12.50;84.40;;;;;;10932862;32;20027;-73
2023/03/07 09:21:32;;;;;;;18.75;14.27;;;12.70;84.80;;;;;;10942233;32;20015;-73
2023/03/07 09:27:34;;;;;;;18.87;13.95;;;12.90;84.70;;;;;;10927890;32;20061;-73
2023/03/07 09:33:36;;;;;;;32.83;27.35;;;12.90;84.90;;;;;;10941681;32;20023;-73
2023/03/07 09:39:38;;;;;;;17.80;14.80;;;12.90;84.80;;;;;;10942035;32;20054;-72
2023/03/07 09:45:57;;;;;;;23.95;18.42;;;12.70;85.20;;;;;;10928439;32;20053;-73
2023/03/07 09:52:01;;;;;;;22.98;18.02;;;12.80;85.00;;;;;;10949047;32;20019;-73
2023/03/07 09:58:12;;;;;;;20.60;13.98;;;12.90;85.10;;;;;;10948885;32;20335;-72
2023/03/07 10:04:22;;;;;;;17.90;13.38;;;13.00;84.40;;;;;;10934732;32;20058;-73
2023/03/07 10:10:56;;;;;;;25.08;20.35;;;13.20;84.80;;;;;;10948502;32;20050;-72
2023/03/07 10:17:24;;;;;;;23.62;14.70;;;13.30;83.60;;;;;;10950062;32;20063;-73
2023/03/07 10:23:44;;;;;;;26.17;17.17;;;13.20;83.60;;;;;;10948561;32;20352;-72
2023/03/07 10:29:49;;;;;;;20.75;15.65;;;13.40;83.60;;;;;;10947835;32;20317;-73
2023/03/07 10:36:29;;;;;;;24.65;17.40;;;13.40;83.40;;;;;;10946835;32;20069;-73
2023/03/07 10:42:35;;;;;;;20.80;13.32;;;13.30;83.20;;;;;;10948074;32;20011;-71
2023/03/07 10:48:41;;;;;;;19.75;12.98;;;13.60;83.80;;;;;;10933479;32;20050;-72
2023/03/07 11:01:59;;;;;;;21.40;15.32;;;13.70;83.20;;;;;;10909936;32;20024;-71
2023/03/07 11:08:28;;;;;;;23.12;18.90;;;13.70;82.10;;;;;;10906995;32;20024;-71
2023/03/07 11:14:52;;;;;;;18.45;13.00;;;13.90;81.40;;;;;;10899062;32;20035;-72
2023/03/07 11:20:54;;;;;;;13.60;11.25;;;14.40;82.30;;;;;;10903984;32;20334;-72
2023/03/07 11:26:57;;;;;;;16.10;12.07;;;14.70;81.60;;;;;;10908906;32;20317;-71
2023/03/07 11:33:06;;;;;;;26.33;19.05;;;15.10;81.60;;;;;;10906837;32;20046;-71
2023/03/07 11:39:28;;;;;;;53.17;37.50;;;15.40;81.40;;;;;;10907758;32;20058;-71
2023/03/07 11:45:39;;;;;;;36.35;26.92;;;15.30;81.40;;;;;;10893518;32;20413;-71
2023/03/07 11:52:25;;;;;;;24.73;17.12;;;15.00;81.60;;;;;;10908412;32;20057;-71
2023/03/07 11:58:46;;;;;;;25.33;15.50;;;14.80;81.50;;;;;;10902220;32;20050;-71
2023/03/07 12:05:20;;;;;;;30.70;15.10;;;14.80;81.20;;;;;;10907293;32;20028;-71
2023/03/07 12:11:35;;;;;;;19.40;14.25;;;15.10;79.80;;;;;;10907236;32;20019;-71
2023/03/07 12:18:05;;;;;;;23.73;14.43;;;15.40;79.20;;;;;;10906306;32;20069;-71
2023/03/07 12:24:19;;;;;;;19.15;11.25;;;15.20;76.20;;;;;;10906054;32;20020;-72
2023/03/07 12:30:46;;;;;;;18.70;11.65;;;14.90;75.80;;;;;;10904959;32;20028;-72
2023/03/07 12:37:36;;;;;;;13.18;9.60;;;14.80;74.00;;;;;;10905947;32;20389;-73
2023/03/07 12:43:50;;;;;;;24.00;13.38;;;14.80;74.50;;;;;;10906382;32;20061;-72
2023/03/07 12:50:32;;;;;;;14.10;8.80;;;14.70;74.90;;;;;;10905127;32;20012;-72
2023/03/07 12:56:48;;;;;;;15.85;10.07;;;14.80;76.70;;;;;;10754046;33;20045;-73
2023/03/07 13:03:00;;;;;;;12.75;9.45;;;15.00;76.70;;;;;;10752511;33;20053;-73
2023/03/07 13:09:02;;;;;;;12.32;8.55;;;15.00;75.00;;;;;;10751607;33;20051;-73
2023/03/07 13:15:40;;;;;;;17.80;10.13;;;14.90;74.80;;;;;;10752671;33;20021;-72
2023/03/07 13:21:41;;;;;;;13.68;9.13;;;14.80;74.60;;;;;;10678067;33;20048;-72
2023/03/07 13:27:52;;;;;;;16.05;9.98;;;14.80;75.10;;;;;;10681134;33;20029;-72
2023/03/07 13:33:54;;;;;;;12.65;8.27;;;14.80;75.30;;;;;;10785411;33;20059;-73
2023/03/07 13:40:05;;;;;;;12.80;8.88;;;14.90;74.20;;;;;;10787633;33;20024;-73
2023/03/07 13:46:41;;;;;;;24.37;13.88;;;14.80;75.30;;;;;;10778933;33;20110;-72
2023/03/07 13:52:44;;;;;;;9.98;6.00;;;14.80;74.60;;;;;;10750590;33;20025;-73
2023/03/07 13:59:01;;;;;;;11.32;5.55;;;14.70;73.90;;;;;;10781839;32;20028;-73
2023/03/07 14:05:03;;;;;;;11.98;8.32;;;14.80;73.80;;;;;;10788260;32;20301;-72
2023/03/07 14:11:14;;;;;;;17.98;14.32;;;14.90;75.30;;;;;;10788233;33;20024;-73
2023/03/07 14:17:37;;;;;;;32.15;25.35;;;15.20;75.80;;;;;;10788067;33;20036;-72
2023/03/07 14:24:16;;;;;;;17.92;14.05;;;15.20;76.60;;;;;;10786615;33;20488;-72
2023/03/07 14:30:19;;;;;;;22.30;14.45;;;15.20;77.00;;;;;;10885392;32;20028;-72
2023/03/07 14:36:29;;;;;;;13.57;9.10;;;15.00;77.60;;;;;;10923061;32;20058;-72
2023/03/07 14:42:34;;;;;;;11.60;7.57;;;14.80;76.70;;;;;;10946068;32;20023;-72
2023/03/07 14:48:52;;;;;;;11.00;7.97;;;14.70;77.40;;;;;;10933505;32;20035;-72
2023/03/07 14:54:55;;;;;;;10.50;6.97;;;14.80;78.10;;;;;;10946650;32;20104;-72
2023/03/07 15:01:00;;;;;;;11.15;8.77;;;14.80;78.40;;;;;;10933667;32;20049;-72
2023/03/07 15:07:21;;;;;;;14.68;6.55;;;14.90;78.20;;;;;;10928197;32;20306;-70
2023/03/07 15:13:55;;;;;;;16.87;9.70;;;14.90;77.70;;;;;;10944923;32;20042;-71
2023/03/07 15:20:13;;;;;;;32.08;10.43;;;14.90;77.70;;;;;;10923871;32;20030;-71
2023/03/07 15:26:30;;;;;;;10.73;6.55;;;14.80;78.30;;;;;;10907917;32;20058;-70
2023/03/07 15:32:38;;;;;;;11.63;5.93;;;14.90;78.80;;;;;;10893697;32;20046;-70
2023/03/07 15:39:33;;;;;;;8.85;6.10;;;14.80;79.30;;;;;;10906568;32;20039;-72
2023/03/07 15:46:12;;;;;;;11.77;5.85;;;14.70;79.00;;;;;;10805593;32;20035;-72
2023/03/07 15:52:36;;;;;;;5.82;4.07;;;14.70;79.50;;;;;;10908627;32;20019;-72
2023/03/07 15:58:44;;;;;;;10.25;6.65;;;14.80;79.70;;;;;;10893472;32;20039;-72
2023/03/07 16:04:46;;;;;;;8.05;6.40;;;14.70;79.60;;;;;;10903954;32;20345;-73
2023/03/07 16:11:16;;;;;;;8.50;5.55;;;14.60;79.90;;;;;;10896809;32;20105;-72
2023/03/07 16:17:29;;;;;;;8.05;5.85;;;14.50;80.40;;;;;;10906666;32;20031;-72
2023/03/07 16:23:32;;;;;;;15.55;8.73;;;14.60;81.00;;;;;;10836709;27;20036;-72
2023/03/07 16:29:34;;;;;;;23.48;13.35;;;14.70;81.00;;;;;;10789471;33;20012;-72
2023/03/07 16:35:36;;;;;;;11.60;8.13;;;14.80;81.10;;;;;;10786160;33;20020;-72
2023/03/07 16:41:44;;;;;;;21.30;15.63;;;14.80;81.40;;;;;;10786703;33;20051;-72
2023/03/07 16:47:49;;;;;;;15.80;12.75;;;14.80;81.60;;;;;;10748931;33;20043;-73
2023/03/07 16:53:51;;;;;;;22.98;15.38;;;14.60;81.50;;;;;;10752845;33;20051;-74
2023/03/07 16:59:53;;;;;;;22.02;16.37;;;14.50;81.90;;;;;;10739743;33;20047;-72
2023/03/07 17:05:55;;;;;;;34.90;19.27;;;14.50;82.10;;;;;;10739552;33;20390;-72
2023/03/07 17:11:58;;;;;;;32.30;23.98;;;14.50;81.90;;;;;;10723309;33;20036;-72
2023/03/07 17:18:01;;;;;;;22.23;15.15;;;14.30;81.30;;;;;;10738765;33;20021;-72
2023/03/07 17:24:03;;;;;;;26.33;17.17;;;14.00;81.80;;;;;;10742324;33;20063;-72
2023/03/07 17:30:06;;;;;;;20.08;13.10;;;14.00;82.50;;;;;;10752541;33;20043;-72
2023/03/07 17:36:12;;;;;;;27.20;10.48;;;14.10;82.60;;;;;;10748002;33;20046;-72
2023/03/07 17:42:14;;;;;;;14.93;10.15;;;14.20;82.80;;;;;;10747448;33;20032;-72
2023/03/07 17:48:16;;;;;;;15.50;9.48;;;14.20;82.60;;;;;;10737446;33;20079;-72
2023/03/07 17:54:19;;;;;;;17.40;12.50;;;14.00;82.80;;;;;;10762990;33;20024;-72
2023/03/07 18:00:21;;;;;;;14.98;8.10;;;14.10;82.70;;;;;;10749959;33;20324;-72
2023/03/07 18:06:24;;;;;;;11.32;7.93;;;14.00;82.80;;;;;;10751589;33;20020;-72
2023/03/07 18:12:28;;;;;;;15.07;8.68;;;13.90;83.00;;;;;;10755239;33;20391;-72
2023/03/07 18:18:33;;;;;;;13.35;7.97;;;13.90;82.70;;;;;;10758495;33;20057;-72
2023/03/07 18:24:35;;;;;;;11.75;7.85;;;14.00;82.90;;;;;;10756541;33;20044;-72
2023/03/07 18:30:37;;;;;;;10.77;8.27;;;14.00;82.80;;;;;;10756536;33;20020;-72
2023/03/07 18:36:48;;;;;;;9.88;7.55;;;14.00;82.70;;;;;;10756633;33;20418;-72
2023/03/07 18:42:50;;;;;;;12.45;6.60;;;13.80;82.80;;;;;;10753689;33;20080;-72
2023/03/07 18:48:59;;;;;;;12.30;7.72;;;13.70;83.10;;;;;;10755486;33;20047;-72
2023/03/07 18:55:01;;;;;;;15.63;9.30;;;13.50;83.20;;;;;;10754607;33;20054;-73
2023/03/07 19:01:22;;;;;;;11.25;8.10;;;13.40;83.40;;;;;;10754567;33;20407;-73
2023/03/07 19:07:27;;;;;;;11.93;8.07;;;13.40;83.40;;;;;;10755414;33;20040;-71
2023/03/07 19:13:51;;;;;;;11.30;7.35;;;13.30;83.50;;;;;;10754968;33;20043;-71
2023/03/07 19:19:57;;;;;;;9.18;6.90;;;13.30;83.50;;;;;;10754114;33;20043;-70
2023/03/07 19:26:23;;;;;;;10.27;8.15;;;13.50;83.50;;;;;;10754580;33;20070;-70
2023/03/07 19:32:28;;;;;;;13.40;8.40;;;13.60;83.30;;;;;;10753512;33;20048;-71
2023/03/07 19:38:34;;;;;;;11.05;8.02;;;13.70;83.30;;;;;;10751436;33;20091;-71
2023/03/07 19:44:38;;;;;;;10.18;8.18;;;13.70;83.20;;;;;;10754181;33;20035;-71
2023/03/07 19:50:40;;;;;;;15.52;8.50;;;13.70;83.20;;;;;;10754853;33;20181;-71
2023/03/07 19:56:44;;;;;;;11.82;7.97;;;13.50;83.50;;;;;;10751744;33;20047;-71
2023/03/07 20:02:46;;;;;;;10.77;7.78;;;13.50;83.70;;;;;;10752371;33;20067;-71
2023/03/07 20:08:49;;;;;;;11.10;7.12;;;13.50;83.70;;;;;;10720219;33;20025;-71
2023/03/07 20:14:53;;;;;;;11.57;6.43;;;13.60;83.60;;;;;;10712079;33;20025;-71
2023/03/07 20:21:05;;;;;;;11.00;6.53;;;13.60;83.50;;;;;;10731758;33;20024;-71
2023/03/07 20:27:19;;;;;;;10.35;6.22;;;13.60;83.60;;;;;;10749527;33;20063;-70
2023/03/07 20:33:22;;;;;;;23.77;8.38;;;13.70;83.60;;;;;;10734715;33;20051;-72
2023/03/07 20:39:27;;;;;;;10.30;7.18;;;13.70;83.50;;;;;;10739128;33;20044;-73
2023/03/07 20:45:30;;;;;;;11.85;9.23;;;13.60;83.40;;;;;;10749805;33;20056;-72
2023/03/07 20:51:35;;;;;;;11.27;9.00;;;13.50;83.50;;;;;;10748219;33;20013;-72
2023/03/07 20:57:37;;;;;;;16.05;8.00;;;13.50;83.60;;;;;;10751708;33;20055;-72
2023/03/07 21:03:39;;;;;;;9.38;7.30;;;13.50;83.90;;;;;;10749195;33;20021;-72
2023/03/07 21:09:42;;;;;;;12.98;8.02;;;13.50;84.00;;;;;;10735024;33;20055;-72
2023/03/07 21:15:59;;;;;;;17.58;9.18;;;13.40;83.80;;;;;;10736317;33;20029;-72
2023/03/07 21:22:03;;;;;;;14.98;10.00;;;13.30;83.60;;;;;;10748666;33;20066;-72
2023/03/07 21:28:05;;;;;;;14.60;10.77;;;13.20;83.60;;;;;;10751594;33;20052;-72
2023/03/07 21:34:12;;;;;;;11.88;7.53;;;13.20;83.60;;;;;;10736952;33;20028;-72
2023/03/07 21:40:20;;;;;;;11.77;9.38;;;13.20;83.50;;;;;;10750698;33;20261;-72
2023/03/07 21:46:23;;;;;;;15.00;10.90;;;13.00;83.40;;;;;;10737649;33;20354;-72
2023/03/07 21:52:30;;;;;;;13.10;10.60;;;13.00;83.70;;;;;;10747661;33;20024;-72
2023/03/07 21:58:35;;;;;;;13.73;11.90;;;12.80;84.00;;;;;;10750614;33;20016;-72
2023/03/07 22:04:39;;;;;;;13.65;11.07;;;12.70;84.10;;;;;;10751248;33;20021;-72
2023/03/07 22:10:42;;;;;;;18.50;15.18;;;12.60;84.20;;;;;;10750124;33;20175;-72
2023/03/07 22:16:45;;;;;;;14.90;11.57;;;12.50;83.70;;;;;;10748270;33;20063;-72
2023/03/07 22:22:47;;;;;;;18.12;14.00;;;12.40;83.80;;;;;;10747323;33;20335;-72
2023/03/07 22:28:51;;;;;;;15.80;12.25;;;12.50;84.10;;;;;;10751360;33;20300;-72
2023/03/07 22:34:53;;;;;;;16.37;13.35;;;12.40;83.80;;;;;;10751079;33;20029;-72
2023/03/07 22:41:09;;;;;;;15.70;11.65;;;12.50;83.70;;;;;;10750857;33;20063;-72
2023/03/07 22:47:11;;;;;;;15.13;10.25;;;12.50;83.60;;;;;;10750308;33;20021;-72
2023/03/07 22:53:14;;;;;;;18.67;12.70;;;12.50;83.50;;;;;;10751740;33;20017;-72
2023/03/07 22:59:26;;;;;;;17.50;13.82;;;12.40;83.50;;;;;;10743401;33;20041;-73
2023/03/07 23:05:32;;;;;;;14.27;11.63;;;12.20;84.20;;;;;;10755324;33;20028;-72
2023/03/07 23:11:54;;;;;;;17.58;12.68;;;12.10;84.00;;;;;;10742185;33;20037;-72
2023/03/07 23:17:57;;;;;;;20.92;15.50;;;12.00;84.20;;;;;;10754167;33;20047;-72
2023/03/07 23:24:00;;;;;;;17.75;11.12;;;11.80;84.00;;;;;;10755281;33;20047;-72
2023/03/07 23:30:04;;;;;;;18.70;12.37;;;11.70;84.00;;;;;;10754841;33;20047;-72
2023/03/07 23:42:56;;;;;;;15.25;12.07;;;11.70;83.60;;;;;;10715127;33;20025;-72
2023/03/07 23:48:58;;;;;;;17.50;13.95;;;11.60;83.60;;;;;;10701235;33;20124;-72
2023/03/07 23:55:02;;;;;;;20.25;14.38;;;11.70;83.50;;;;;;10713680;33;20067;-72
